Rechercher aéroport 
image banner adimage banner adimage banner ad
image banner ad

7IA7 - Mitchell Field

Situé à New Hampton, United States

ICAO - 7IA7, IATA -

Données fournies par Airmate  

Information générale

Coordonnées: N43°5'1" W92°18'36"
Élévation : 1160 feet MSL.
Variation magnétique : 02° East
Voir autres Aéroports à Iowa

Données opérationnelles

Special qualification required
Heure actuelle UTC:
Heure actuelle locale:
Météo à : KCCY - Northeast Iowa Rgnl ( 24 km )
METAR: KCCY 210315Z AUTO 30010G16KT 10SM BKN019 BKN023 OVC040 16/14 A2990 RMK AO2
Voir NOTAMs / SUP AIP / TFR affectant cet aéroport [VIEW]
Fréquences de communication: [VIEW]

Pistes:

Identifiant RWYQFULongueur (ft)Largeur (ft)SurfaceLDA (ft)
06150016CONC
24150016CONC

Coordonnées de l'aéroport

Adresse: New Hampton United States

Vue satellite de 7IA7